Time;durP1;ratioP1;P1;durP2;ratioP2;P2;SDS_P1;SDS_P2;PMS_P1;PMS_P2;Temp;Humidity;BMP_temperature;BMP_pressure;BME280_temperature;BME280_humidity;BME280_pressure;Samples;Min_cycle;Max_cycle;Signal;HPM_P1;HPM_P2
2022/05/24 00:02:18;;;;;;;5.45;1.52;;;;;;;18.63;42.87;99088.53;4195073;34;35069;-76
2022/05/24 00:05:06;;;;;;;3.62;1.10;;;;;;;18.68;42.98;99088.22;4186112;34;34467;-76
2022/05/24 00:07:53;;;;;;;4.90;1.20;;;;;;;18.67;42.89;99086.63;4194806;34;34553;-75
2022/05/24 00:10:41;;;;;;;6.07;1.20;;;;;;;18.72;42.54;99075.16;4191005;34;34536;-75
2022/05/24 00:13:27;;;;;;;4.57;1.35;;;;;;;18.52;43.24;99073.75;4196022;34;35085;-75
2022/05/24 00:16:14;;;;;;;2.47;1.30;;;;;;;18.52;43.24;99065.41;4185004;34;34105;-75
2022/05/24 00:19:00;;;;;;;2.12;1.20;;;;;;;18.32;44.36;99068.34;4194634;34;34667;-75
2022/05/24 00:21:47;;;;;;;8.00;1.48;;;;;;;18.66;43.67;99060.84;4185969;34;35027;-75
2022/05/24 00:24:33;;;;;;;3.67;1.30;;;;;;;18.66;43.13;99062.81;4182221;34;35256;-75
2022/05/24 00:27:19;;;;;;;2.65;1.02;;;;;;;18.19;43.77;99058.69;4187424;34;35022;-75
2022/05/24 00:30:06;;;;;;;4.28;1.48;;;;;;;18.42;43.41;99053.81;4187503;34;34701;-75
2022/05/24 00:32:53;;;;;;;3.90;1.17;;;;;;;18.29;43.50;99058.00;4194584;34;34493;-76
2022/05/24 00:35:40;;;;;;;5.37;1.30;;;;;;;18.51;43.27;99063.84;4186611;34;35730;-75
2022/05/24 00:38:28;;;;;;;5.03;1.73;;;;;;;18.27;44.07;99051.25;4186081;34;34241;-75
2022/05/24 00:41:25;;;;;;;3.25;1.45;;;;;;;18.00;44.55;99056.03;4194295;34;34767;-75
2022/05/24 00:44:23;;;;;;;4.65;1.62;;;;;;;17.88;44.76;99060.62;4185460;34;34959;-75
2022/05/24 00:47:14;;;;;;;2.72;1.33;;;;;;;17.93;44.91;99049.25;4185436;34;34791;-75
2022/05/24 00:50:11;;;;;;;5.43;1.80;;;;;;;17.83;44.90;99049.06;4194883;34;34441;-75
2022/05/24 00:53:13;;;;;;;1.87;1.33;;;;;;;17.75;45.31;99053.69;4195390;34;33609;-75
2022/05/24 00:56:02;;;;;;;;;;;;;;;17.74;44.72;99060.41;4185639;34;34620;-75
2022/05/24 00:58:55;;;;;;;3.17;1.30;;;;;;;17.76;45.21;99058.06;4195083;34;35440;-74
2022/05/24 01:01:44;;;;;;;3.80;1.10;;;;;;;17.58;45.75;99059.75;4184996;34;33933;-74
2022/05/24 01:04:30;;;;;;;5.70;1.60;;;;;;;17.62;45.50;99047.56;4184417;34;34937;-75
2022/05/24 01:07:17;;;;;;;5.57;1.52;;;;;;;17.72;45.03;99046.91;4185503;34;34933;-75
2022/05/24 01:10:07;;;;;;;5.68;1.40;;;;;;;17.75;45.23;99048.13;4185229;34;34427;-75
2022/05/24 01:13:10;;;;;;;3.35;1.10;;;;;;;17.76;45.36;99050.53;4185142;34;34401;-75
2022/05/24 01:15:57;;;;;;;3.77;1.30;;;;;;;17.60;45.72;99054.66;4186326;34;34561;-75
2022/05/24 01:18:44;;;;;;;3.42;1.55;;;;;;;18.00;44.77;99061.59;4184472;34;34493;-75
2022/05/24 01:21:30;;;;;;;1.77;1.00;;;;;;;17.71;45.64;99052.84;4194573;34;34847;-74
2022/05/24 01:24:26;;;;;;;2.25;1.10;;;;;;;17.96;44.85;99059.56;4185752;34;35288;-75
2022/05/24 01:27:12;;;;;;;2.05;1.00;;;;;;;17.82;45.01;99072.44;4180889;34;35624;-75
2022/05/24 01:29:59;;;;;;;3.97;1.30;;;;;;;17.63;45.45;99073.28;4194221;34;34978;-75
2022/05/24 01:39:00;;;;;;;3.33;1.20;;;;;;;17.39;46.47;99102.16;4187237;34;34573;-76
2022/05/24 01:41:48;;;;;;;4.20;1.30;;;;;;;17.80;45.92;99124.63;4187096;34;35976;-75
2022/05/24 01:44:45;;;;;;;2.92;1.02;;;;;;;17.87;46.07;99146.91;4184769;34;34902;-75
2022/05/24 01:47:34;;;;;;;2.12;1.58;;;;;;;17.93;45.32;99146.25;4187972;34;35363;-75
2022/05/24 01:50:21;;;;;;;2.58;1.27;;;;;;;17.97;45.53;99130.44;4186616;34;34565;-76
2022/05/24 01:53:16;;;;;;;3.30;1.27;;;;;;;17.95;46.09;99130.00;4196535;34;34433;-75
2022/05/24 01:56:06;;;;;;;3.72;1.50;;;;;;;17.68;50.92;99101.47;4187566;34;35681;-76
2022/05/24 01:58:54;;;;;;;1.80;1.17;;;;;;;17.40;52.15;99038.13;4196592;34;34412;-76
2022/05/24 02:01:47;;;;;;;5.55;1.20;;;;;;;17.30;51.97;99024.87;4183541;34;35722;-77
2022/05/24 02:04:34;;;;;;;2.58;1.35;;;;;;;17.12;53.93;99060.56;4195577;34;34974;-77
2022/05/24 02:07:23;;;;;;;3.95;1.33;;;;;;;16.99;52.69;99059.16;4186414;34;35853;-76
2022/05/24 02:10:09;;;;;;;2.67;1.35;;;;;;;16.95;55.04;99072.94;4185818;34;35380;-76
2022/05/24 02:12:57;;;;;;;6.25;1.67;;;;;;;17.17;55.26;99095.47;4187601;34;34538;-76
2022/05/24 02:15:45;;;;;;;5.25;1.70;;;;;;;17.28;55.92;99100.03;4196085;34;35026;-77
2022/05/24 02:18:32;;;;;;;4.03;1.65;;;;;;;17.08;58.01;99124.19;4176633;34;34889;-77
2022/05/24 02:21:18;;;;;;;3.53;1.83;;;;;;;17.29;57.07;99134.03;4187224;34;34908;-77
2022/05/24 02:24:18;;;;;;;2.72;1.70;;;;;;;17.31;57.69;99126.19;4185546;34;34601;-76
2022/05/24 02:27:04;;;;;;;3.90;1.80;;;;;;;17.29;58.64;99128.50;4185150;34;34977;-76
2022/05/24 02:29:51;;;;;;;5.55;2.00;;;;;;;16.99;60.32;99142.16;4185967;34;34131;-76
2022/05/24 02:32:37;;;;;;;3.87;2.12;;;;;;;16.91;62.47;99152.31;4187443;34;34400;-77
2022/05/24 02:35:24;;;;;;;5.25;2.00;;;;;;;17.16;62.56;99160.28;4196174;34;35187;-76
2022/05/24 02:38:11;;;;;;;7.47;2.42;;;;;;;16.98;64.64;99166.28;4187171;34;34495;-76
2022/05/24 02:44:08;;;;;;;3.90;2.33;;;;;;;16.29;69.25;99170.72;4192597;34;34369;-76
2022/05/24 02:46:54;;;;;;;4.80;2.08;;;;;;;16.46;66.69;99175.06;4175894;34;35650;-75
2022/05/24 02:49:41;;;;;;;5.68;2.25;;;;;;;16.68;67.59;99170.75;4187128;34;33862;-75
2022/05/24 02:52:27;;;;;;;7.30;3.03;;;;;;;16.08;72.62;99171.84;4186916;34;34895;-75
2022/05/24 02:55:14;;;;;;;5.30;2.80;;;;;;;16.44;70.07;99178.16;4187087;34;35022;-75
2022/05/24 02:58:01;;;;;;;7.03;2.67;;;;;;;15.97;71.34;99173.56;4186022;34;35285;-76
2022/05/24 03:00:48;;;;;;;4.80;2.30;;;;;;;15.98;72.38;99175.16;4186435;34;34492;-79
2022/05/24 03:03:34;;;;;;;4.87;3.05;;;;;;;16.43;70.77;99182.09;4186720;34;34992;-82
2022/05/24 03:06:22;;;;;;;6.30;3.10;;;;;;;16.09;72.06;99165.16;4187364;34;34425;-82
2022/05/24 03:15:18;;;;;;;8.70;3.50;;;;;;;15.87;77.29;99149.22;4186913;34;34429;-82
2022/05/24 03:18:04;;;;;;;6.28;3.65;;;;;;;15.73;79.87;99144.94;4195787;34;35351;-82
2022/05/24 03:20:51;;;;;;;6.70;3.22;;;;;;;15.47;79.60;99131.66;4186512;34;34658;-83
2022/05/24 03:23:37;;;;;;;6.32;2.97;;;;;;;15.94;76.49;99143.88;4196142;34;35916;-82
2022/05/24 03:26:23;;;;;;;6.78;3.00;;;;;;;16.07;74.45;99148.13;4187993;34;34990;-81
2022/05/24 03:29:13;;;;;;;4.87;2.87;;;;;;;16.09;73.66;99143.03;4176305;34;35099;-81
2022/05/24 03:32:00;;;;;;;6.97;3.08;;;;;;;16.03;73.57;99158.31;4195897;34;35314;-81
2022/05/24 03:34:46;;;;;;;7.28;3.00;;;;;;;15.92;74.87;99177.37;4184350;34;35900;-82
2022/05/24 03:37:34;;;;;;;6.62;3.40;;;;;;;15.89;74.74;99196.62;4185973;34;34830;-81
2022/05/24 03:40:20;;;;;;;5.32;3.28;;;;;;;15.75;76.70;99216.41;4184620;34;34409;-81
2022/05/24 03:43:15;;;;;;;5.87;3.22;;;;;;;15.96;76.34;99219.69;4184984;34;35652;-81
2022/05/24 03:46:07;;;;;;;6.72;3.37;;;;;;;15.72;76.59;99226.22;4185854;34;34931;-81
2022/05/24 03:48:54;;;;;;;7.82;3.45;;;;;;;15.44;79.82;99203.34;4185984;34;35006;-81
2022/05/24 03:51:41;;;;;;;6.82;3.83;;;;;;;15.00;84.65;99195.06;4183876;34;32972;-82
2022/05/24 03:54:27;;;;;;;6.20;3.42;;;;;;;14.96;85.66;99178.41;4194827;34;34680;-82
2022/05/24 04:00:22;;;;;;;4.93;3.08;;;;;;;15.40;79.77;99191.44;4184613;34;34635;-78
2022/05/24 04:03:08;;;;;;;7.10;3.50;;;;;;;15.57;78.63;99196.59;4200073;34;34291;-76
2022/05/24 04:06:01;;;;;;;6.87;3.50;;;;;;;15.22;79.17;99186.19;4190256;34;34306;-77
2022/05/24 04:08:48;;;;;;;7.12;3.70;;;;;;;15.47;78.36;99188.84;4199760;34;36023;-77
2022/05/24 04:11:34;;;;;;;7.32;3.53;;;;;;;15.71;77.03;99210.81;4197984;34;34804;-77
2022/05/24 04:14:21;;;;;;;7.03;3.70;;;;;;;15.48;77.72;99207.81;4190766;34;34598;-77
2022/05/24 04:17:07;;;;;;;9.30;4.90;;;;;;;15.35;78.51;99206.28;4190514;34;34724;-77
2022/05/24 04:19:54;;;;;;;4.87;3.50;;;;;;;15.27;80.26;99208.03;4189822;34;35939;-78
2022/05/24 04:22:40;;;;;;;5.95;3.65;;;;;;;15.00;82.18;99201.37;4196833;34;34872;-77
2022/05/24 04:25:26;;;;;;;7.45;3.80;;;;;;;15.26;79.29;99206.44;4186956;34;34364;-78
2022/05/24 04:28:13;;;;;;;7.55;3.53;;;;;;;15.17;80.32;99208.56;4189794;34;35428;-77
2022/05/24 04:31:00;;;;;;;6.70;3.65;;;;;;;15.24;80.27;99222.53;4187176;34;34831;-77
2022/05/24 04:33:46;;;;;;;6.20;3.47;;;;;;;15.39;80.73;99220.16;4185010;34;34846;-78
2022/05/24 04:36:32;;;;;;;5.43;4.05;;;;;;;15.41;80.83;99217.88;4177466;34;34381;-78
2022/05/24 04:39:19;;;;;;;5.20;3.90;;;;;;;15.41;80.73;99221.41;4187418;34;34734;-78
2022/05/24 04:42:24;;;;;;;6.60;3.53;;;;;;;15.02;83.23;99215.59;4187640;34;35930;-77
2022/05/24 04:45:14;;;;;;;7.45;3.97;;;;;;;14.99;82.70;99221.84;4189019;34;35090;-78
2022/05/24 04:48:00;;;;;;;8.55;4.10;;;;;;;15.39;80.44;99231.22;4188694;34;35276;-78
2022/05/24 04:50:51;;;;;;;6.95;4.07;;;;;;;15.24;80.98;99228.06;4189898;34;34753;-78
2022/05/24 04:53:37;;;;;;;8.55;4.35;;;;;;;15.38;80.55;99221.34;4182403;34;35071;-77
2022/05/24 04:56:25;;;;;;;9.18;4.32;;;;;;;15.07;83.29;99234.69;4198891;34;34861;-77
2022/05/24 04:59:11;;;;;;;6.20;4.35;;;;;;;15.20;80.95;99227.16;4190439;34;35214;-77
2022/05/24 05:01:58;;;;;;;7.03;4.05;;;;;;;14.98;82.65;99230.47;4189555;34;34718;-78
2022/05/24 05:04:45;;;;;;;7.90;3.95;;;;;;;14.42;85.83;99220.09;4188313;34;36004;-78
2022/05/24 05:07:32;;;;;;;10.45;5.03;;;;;;;14.86;83.94;99217.53;4189117;34;35986;-76
2022/05/24 05:10:19;;;;;;;6.35;4.12;;;;;;;14.94;82.82;99219.34;4187762;34;34531;-77
2022/05/24 05:13:06;;;;;;;6.25;4.25;;;;;;;14.72;83.79;99220.66;4191835;34;35575;-77
2022/05/24 05:15:52;;;;;;;7.12;4.05;;;;;;;14.88;83.40;99225.44;4191662;34;35991;-76
2022/05/24 05:18:38;;;;;;;9.23;4.57;;;;;;;14.59;84.80;99224.59;4190196;34;34909;-76
2022/05/24 05:21:31;;;;;;;8.07;4.37;;;;;;;14.58;84.46;99223.00;4188816;34;34691;-76
2022/05/24 05:24:17;;;;;;;6.95;4.35;;;;;;;14.65;84.77;99228.72;4189081;34;34623;-77
2022/05/24 05:27:04;;;;;;;7.62;5.03;;;;;;;14.42;86.34;99219.31;4190334;34;34943;-76
2022/05/24 05:32:58;;;;;;;8.73;5.12;;;;;;;14.43;87.96;99229.19;4187431;34;35218;-76
2022/05/24 05:35:46;;;;;;;10.48;5.12;;;;;;;14.65;86.35;99234.22;4177399;34;34658;-76
2022/05/24 05:38:32;;;;;;;13.88;5.60;;;;;;;14.52;87.78;99236.22;4189158;34;35084;-77
2022/05/24 05:41:30;;;;;;;9.63;5.43;;;;;;;14.79;86.36;99237.41;4189436;34;34971;-77
2022/05/24 05:44:16;;;;;;;13.15;6.25;;;;;;;15.08;85.32;99246.50;4180384;34;34449;-76
2022/05/24 05:47:03;;;;;;;11.57;5.85;;;;;;;14.62;88.79;99241.25;4190729;34;34735;-77
2022/05/24 05:49:50;;;;;;;9.50;6.18;;;;;;;14.79;87.14;99239.37;4189981;34;34690;-77
2022/05/24 05:52:36;;;;;;;12.10;6.30;;;;;;;14.89;86.69;99238.91;4199665;34;34866;-77
2022/05/24 05:55:24;;;;;;;12.57;6.68;;;;;;;14.55;88.37;99230.00;4190505;34;34418;-77
2022/05/24 05:58:11;;;;;;;8.88;6.07;;;;;;;14.47;90.66;99232.88;4190523;34;34616;-77
2022/05/24 06:00:57;;;;;;;10.82;5.90;;;;;;;14.52;88.90;99240.94;4188746;34;35947;-76
2022/05/24 06:03:44;;;;;;;15.95;6.35;;;;;;;14.49;90.70;99238.84;4188141;34;35866;-76
2022/05/24 06:06:33;;;;;;;9.40;6.07;;;;;;;14.42;90.51;99244.91;4186722;34;34364;-76
2022/05/24 06:09:20;;;;;;;10.45;5.80;;;;;;;14.47;90.68;99236.41;4197335;34;34440;-77
2022/05/24 06:12:09;;;;;;;9.30;5.85;;;;;;;14.58;90.22;99240.34;4196843;34;35895;-77
2022/05/24 06:14:56;;;;;;;10.23;5.85;;;;;;;14.33;91.32;99241.50;4188923;34;35012;-77
2022/05/24 06:17:46;;;;;;;10.18;5.85;;;;;;;14.41;92.42;99235.06;4188353;34;35307;-77
2022/05/24 06:20:33;;;;;;;9.23;5.65;;;;;;;14.46;90.67;99231.25;4189811;34;35663;-77
2022/05/24 06:23:20;;;;;;;10.98;5.30;;;;;;;14.55;90.29;99230.00;4186412;34;33875;-77
2022/05/24 06:26:08;;;;;;;9.90;6.22;;;;;;;14.50;90.92;99230.22;4186593;34;34973;-76
2022/05/24 06:28:57;;;;;;;8.98;6.07;;;;;;;14.37;90.46;99231.37;4187947;34;35049;-76
2022/05/24 06:31:44;;;;;;;6.87;4.90;;;;;;;14.01;92.42;99221.97;4196217;34;34764;-77
2022/05/24 06:34:31;;;;;;;8.45;5.40;;;;;;;14.40;90.35;99227.94;4188750;34;35519;-76
2022/05/24 06:37:22;;;;;;;10.43;6.03;;;;;;;14.45;90.00;99230.44;4186134;34;35717;-76
2022/05/24 06:40:14;;;;;;;9.65;5.85;;;;;;;14.30;91.59;99237.47;4187149;34;34031;-76
2022/05/24 06:43:01;;;;;;;9.07;6.12;;;;;;;14.17;91.74;99244.13;4188203;34;34596;-76
2022/05/24 06:45:47;;;;;;;11.18;5.80;;;;;;;14.30;92.34;99245.72;4188178;34;35839;-76
2022/05/24 06:48:35;;;;;;;9.35;6.32;;;;;;;14.50;90.40;99248.72;4190155;34;33925;-76
2022/05/24 06:51:22;;;;;;;8.05;5.75;;;;;;;14.20;92.41;99248.94;4189746;34;33876;-76
2022/05/24 06:54:08;;;;;;;7.95;5.68;;;;;;;14.35;92.43;99262.03;4190271;34;34734;-76
2022/05/24 06:56:54;;;;;;;9.55;6.00;;;;;;;14.64;90.31;99262.97;4199660;34;36000;-76
2022/05/24 07:02:47;;;;;;;10.30;7.03;;;;;;;14.69;90.41;99267.44;4198153;34;35234;-76
2022/05/24 07:05:34;;;;;;;10.30;6.45;;;;;;;14.33;93.10;99266.28;4188302;34;34735;-76
2022/05/24 07:08:20;;;;;;;9.75;6.28;;;;;;;14.57;91.35;99268.25;4190433;34;34920;-76
2022/05/24 07:11:07;;;;;;;8.60;5.32;;;;;;;14.64;90.39;99262.16;4191230;34;35216;-76
2022/05/24 07:13:54;;;;;;;10.00;6.15;;;;;;;14.59;90.06;99252.97;4191467;34;34405;-76
2022/05/24 07:16:40;;;;;;;12.02;6.50;;;;;;;14.58;90.48;99258.84;4190936;34;34756;-76
2022/05/24 07:19:28;;;;;;;11.02;6.10;;;;;;;14.64;90.40;99251.94;4191505;34;35080;-76
2022/05/24 07:22:14;;;;;;;8.18;6.22;;;;;;;14.58;92.62;99256.88;4191021;34;35850;-76
2022/05/24 07:25:01;;;;;;;10.85;6.50;;;;;;;15.09;90.37;99252.88;4200398;34;34382;-76
2022/05/24 07:27:48;;;;;;;11.25;6.50;;;;;;;14.85;92.12;99252.56;4191425;34;35681;-76
2022/05/24 07:30:35;;;;;;;11.68;6.82;;;;;;;15.18;90.74;99257.06;4190855;34;35990;-76
2022/05/24 07:33:21;;;;;;;9.48;6.03;;;;;;;15.32;88.90;99253.13;4191384;34;34966;-76
2022/05/24 07:36:08;;;;;;;9.70;6.65;;;;;;;15.31;90.51;99252.28;4191408;34;34454;-76
2022/05/24 07:38:55;;;;;;;9.27;6.07;;;;;;;14.97;91.99;99261.94;4198137;34;35567;-76
2022/05/24 07:47:59;;;;;;;8.35;6.65;;;;;;;15.56;88.69;99252.97;4191443;34;35337;-76
2022/05/24 07:50:46;;;;;;;8.15;6.05;;;;;;;15.61;87.52;99255.47;4187512;34;35565;-76
2022/05/24 07:53:33;;;;;;;9.93;6.28;;;;;;;15.60;86.26;99255.84;4187200;34;34901;-76
2022/05/24 07:56:19;;;;;;;10.73;6.25;;;;;;;15.79;85.50;99263.47;4187297;34;34959;-75
2022/05/24 07:59:06;;;;;;;9.00;6.90;;;;;;;15.86;87.68;99258.12;4191126;34;34431;-76
2022/05/24 08:01:52;;;;;;;11.45;6.80;;;;;;;15.96;85.92;99263.91;4184403;34;34510;-76
2022/05/24 08:04:39;;;;;;;10.88;7.07;;;;;;;15.69;87.93;99265.59;4199803;34;35072;-75
2022/05/24 08:07:25;;;;;;;9.70;6.80;;;;;;;15.96;85.14;99272.19;4199530;34;34990;-76
2022/05/24 08:10:12;;;;;;;8.48;6.40;;;;;;;15.67;86.88;99273.38;4189813;34;34366;-76
2022/05/24 08:13:08;;;;;;;11.02;7.20;;;;;;;16.10;85.81;99271.75;4198980;34;34558;-76
2022/05/24 08:15:54;;;;;;;11.65;6.72;;;;;;;16.32;87.38;99272.28;4198983;34;35030;-76
2022/05/24 08:18:43;;;;;;;9.48;6.60;;;;;;;16.19;85.80;99261.34;4198930;34;34876;-76
2022/05/24 08:21:31;;;;;;;10.23;6.93;;;;;;;16.66;83.84;99267.16;4190114;34;35256;-76
2022/05/24 08:24:17;;;;;;;11.02;6.75;;;;;;;16.13;86.79;99250.91;4190199;34;34577;-75
2022/05/24 08:27:04;;;;;;;10.00;6.75;;;;;;;16.19;83.65;99249.47;4198442;34;35017;-76
2022/05/24 08:29:51;;;;;;;8.75;6.70;;;;;;;16.61;83.90;99255.19;4189806;34;34866;-76
2022/05/24 08:32:37;;;;;;;10.43;6.80;;;;;;;16.46;84.00;99263.53;4197441;34;35219;-76
2022/05/24 08:35:24;;;;;;;10.85;6.45;;;;;;;16.73;82.79;99257.03;4192255;34;34653;-76
2022/05/24 08:38:14;;;;;;;12.07;6.60;;;;;;;16.50;83.29;99256.91;4188455;34;35989;-76
2022/05/24 08:41:04;;;;;;;11.75;5.80;;;;;;;16.74;84.01;99257.84;4188823;34;35820;-75
2022/05/24 08:50:26;;;;;;;8.60;5.03;;;;;;;17.08;81.46;99256.25;4193157;34;34956;-74
2022/05/24 08:53:17;;;;;;;8.93;4.70;;;;;;;17.30;80.38;99257.47;4192504;34;35766;-75
2022/05/24 08:56:07;;;;;;;10.35;4.82;;;;;;;17.82;77.86;99256.13;4193282;34;35272;-75
2022/05/24 08:59:03;;;;;;;6.33;4.57;;;;;;;17.81;80.91;99253.69;4191948;34;35546;-75
2022/05/24 09:01:50;;;;;;;6.82;4.90;;;;;;;18.07;74.48;99255.72;4192761;34;34717;-75
2022/05/24 09:04:36;;;;;;;6.65;4.40;;;;;;;17.90;78.35;99260.63;4190100;34;35714;-75
2022/05/24 09:07:39;;;;;;;8.25;4.35;;;;;;;17.71;78.69;99261.44;4193569;34;34563;-75
2022/05/24 09:10:52;;;;;;;7.30;4.57;;;;;;;17.31;77.53;99264.63;4201697;34;34646;-75
2022/05/24 09:14:01;;;;;;;7.15;4.62;;;;;;;17.37;77.17;99265.94;4192649;34;35122;-75
2022/05/24 09:17:06;;;;;;;9.20;4.78;;;;;;;17.88;72.52;99270.47;4191684;34;34908;-76
2022/05/24 09:19:52;;;;;;;6.55;4.57;;;;;;;17.93;72.41;99268.19;4191906;34;34403;-75
2022/05/24 09:22:38;;;;;;;7.43;4.20;;;;;;;17.96;75.08;99273.00;4193039;34;35638;-75
2022/05/24 09:25:25;;;;;;;8.07;4.30;;;;;;;18.62;71.53;99262.56;4201784;34;34963;-76
2022/05/24 09:28:11;;;;;;;7.53;4.30;;;;;;;18.67;70.98;99261.44;4202247;34;34843;-76
2022/05/24 09:30:58;;;;;;;6.80;4.22;;;;;;;18.75;71.71;99257.59;4193545;34;34437;-76
2022/05/24 09:33:44;;;;;;;6.55;3.92;;;;;;;19.10;69.74;99262.84;4193528;34;34725;-76
2022/05/24 09:36:39;;;;;;;5.65;3.53;;;;;;;18.99;67.16;99261.91;4193004;34;35949;-77
2022/05/24 09:39:38;;;;;;;7.15;3.83;;;;;;;19.64;68.59;99269.03;4201003;34;34804;-76
2022/05/24 09:42:30;;;;;;;6.07;3.15;;;;;;;19.70;64.58;99267.53;4191786;34;34382;-75
2022/05/24 09:45:24;;;;;;;5.15;2.95;;;;;;;19.57;69.30;99268.13;4191596;34;34536;-76
2022/05/24 09:48:20;;;;;;;4.03;2.83;;;;;;;19.68;63.64;99269.87;4200297;34;34953;-75
2022/05/24 09:51:11;;;;;;;5.28;3.12;;;;;;;19.92;63.16;99274.09;4200384;34;35735;-75
2022/05/24 09:53:57;;;;;;;6.60;3.12;;;;;;;19.89;62.59;99268.50;4191485;34;35362;-76
2022/05/24 09:57:10;;;;;;;5.60;3.40;;;;;;;20.09;59.69;99260.72;4189645;34;34740;-75
2022/05/24 09:59:58;;;;;;;6.82;3.83;;;;;;;19.95;63.63;99262.22;4197157;34;34961;-74
2022/05/24 10:02:44;;;;;;;7.05;4.32;;;;;;;20.51;59.91;99265.81;4188281;34;35861;-76
2022/05/24 10:05:31;;;;;;;6.68;4.22;;;;;;;20.46;59.47;99268.97;4187319;34;35038;-75
2022/05/24 10:08:19;;;;;;;10.60;4.03;;;;;;;20.73;59.89;99271.56;4195290;34;34153;-75
2022/05/24 10:11:22;;;;;;;6.50;4.03;;;;;;;21.20;61.71;99280.97;4197124;34;35969;-76
2022/05/24 10:14:13;;;;;;;5.65;3.58;;;;;;;20.67;59.76;99268.34;4186741;34;34528;-76
2022/05/24 10:17:23;;;;;;;6.45;2.95;;;;;;;21.09;60.31;99270.59;4187619;34;34487;-76
2022/05/24 10:20:47;;;;;;;6.28;3.20;;;;;;;21.44;57.77;99266.38;4186404;34;35464;-77
2022/05/24 10:23:41;;;;;;;5.25;3.00;;;;;;;21.76;58.28;99260.84;4195669;34;35945;-76
2022/05/24 10:26:52;;;;;;;4.47;2.53;;;;;;;21.36;55.71;99253.56;4195753;34;34829;-74
2022/05/24 10:29:52;;;;;;;3.77;2.40;;;;;;;21.58;58.23;99259.25;4195724;34;34890;-74
2022/05/24 10:40:00;;;;;;;6.18;2.53;;;;;;;22.56;54.09;99247.75;4187260;34;34972;-74
2022/05/24 10:43:05;;;;;;;4.65;2.65;;;;;;;22.66;56.99;99252.53;4195646;34;33941;-75
2022/05/24 10:46:00;;;;;;;4.68;2.40;;;;;;;22.58;53.43;99239.78;4187552;34;35292;-75
2022/05/24 10:49:04;;;;;;;5.30;3.12;;;;;;;22.65;54.83;99248.94;4195747;34;35962;-75
2022/05/24 10:51:55;;;;;;;6.70;2.87;;;;;;;22.93;53.21;99246.47;4187710;34;34546;-74
2022/05/24 10:54:50;;;;;;;5.82;2.85;;;;;;;23.50;54.98;99243.44;4186657;34;34003;-75
2022/05/24 10:58:11;;;;;;;11.80;3.28;;;;;;;23.38;49.43;99241.91;4195707;34;35626;-74
2022/05/24 11:01:25;;;;;;;4.55;3.00;;;;;;;22.80;53.12;99249.69;4187619;34;35082;-74
2022/05/24 11:04:17;;;;;;;3.87;2.80;;;;;;;23.43;50.53;99246.28;4196099;34;34876;-74
2022/05/24 11:07:11;;;;;;;5.20;3.30;;;;;;;23.53;51.28;99228.66;4196253;34;34397;-75
2022/05/24 11:10:07;;;;;;;4.70;3.08;;;;;;;23.87;54.06;99225.25;4183356;34;34607;-75
2022/05/24 11:12:58;;;;;;;4.07;2.33;;;;;;;23.46;51.69;99212.72;4186890;34;35021;-75
2022/05/24 11:15:49;;;;;;;3.72;2.50;;;;;;;23.64;48.76;99218.19;4186287;34;34878;-74
2022/05/24 11:18:39;;;;;;;4.87;2.92;;;;;;;23.40;49.30;99224.75;4186277;34;35329;-75
2022/05/24 11:21:32;;;;;;;3.92;2.90;;;;;;;23.78;47.62;99225.72;4176275;34;35520;-75
2022/05/24 11:24:41;;;;;;;5.60;3.08;;;;;;;23.45;52.51;99227.09;4185620;34;35052;-75
2022/05/24 11:27:40;;;;;;;4.28;2.10;;;;;;;23.96;48.51;99214.38;4176414;34;35842;-76
2022/05/24 11:30:39;;;;;;;4.03;2.72;;;;;;;24.07;47.91;99223.50;4186744;34;35388;-76
2022/05/24 11:33:42;;;;;;;4.22;2.20;;;;;;;23.95;47.12;99222.00;4186504;34;34172;-76
2022/05/24 11:36:41;;;;;;;4.93;2.85;;;;;;;24.03;48.35;99217.16;4187500;34;34519;-74
2022/05/24 11:39:36;;;;;;;3.75;2.25;;;;;;;24.11;47.64;99212.28;4185645;34;35798;-75
2022/05/24 11:42:46;;;;;;;5.82;2.60;;;;;;;24.52;46.56;99206.72;4195919;34;33853;-75
2022/05/24 11:45:32;;;;;;;3.70;2.33;;;;;;;24.69;46.74;99211.34;4185686;34;34708;-75
2022/05/24 11:48:19;;;;;;;3.92;2.75;;;;;;;24.59;46.82;99214.25;4186808;34;34994;-75
2022/05/24 11:51:39;;;;;;;4.45;2.58;;;;;;;24.64;45.90;99211.00;4187013;34;34850;-75
2022/05/24 11:54:25;;;;;;;4.25;2.53;;;;;;;24.59;45.89;99220.66;4194700;34;34344;-75
2022/05/24 11:57:15;;;;;;;4.90;2.35;;;;;;;24.86;45.82;99206.75;4187096;34;34270;-75
2022/05/24 12:00:01;;;;;;;5.32;2.25;;;;;;;25.51;45.12;99203.13;4186793;34;35943;-75
2022/05/24 12:09:18;;;;;;;5.30;2.90;;;;;;;25.11;42.95;99195.22;4193872;34;35569;-75
2022/05/24 12:12:29;;;;;;;4.43;2.92;;;;;;;24.80;46.54;99193.63;4187000;34;35648;-75
2022/05/24 12:15:31;;;;;;;6.07;2.62;;;;;;;24.83;44.07;99187.19;4185774;34;34904;-75
2022/05/24 12:18:23;;;;;;;4.20;2.60;;;;;;;24.67;44.00;99191.34;4195344;34;34724;-75
2022/05/24 12:21:48;;;;;;;5.22;3.05;;;;;;;25.07;44.60;99194.50;4194033;34;35225;-75
2022/05/24 12:24:38;;;;;;;5.82;2.60;;;;;;;25.08;46.23;99189.69;4195134;34;34176;-75
2022/05/24 12:27:47;;;;;;;4.68;2.40;;;;;;;25.11;46.69;99186.81;4186471;34;34984;-75
2022/05/24 12:30:39;;;;;;;4.78;2.90;;;;;;;25.83;43.93;99187.84;4195089;34;35320;-75
2022/05/24 12:33:47;;;;;;;4.65;2.80;;;;;;;25.92;42.34;99188.88;4185666;34;34668;-75
2022/05/24 12:36:40;;;;;;;5.15;2.75;;;;;;;25.77;43.92;99190.31;4185428;34;35924;-75
2022/05/24 12:40:13;;;;;;;5.40;3.12;;;;;;;25.90;44.74;99187.72;4186595;34;35702;-75
2022/05/24 12:43:02;;;;;;;4.30;2.70;;;;;;;26.17;42.50;99188.47;4195009;34;33942;-75
2022/05/24 12:45:48;;;;;;;3.90;2.65;;;;;;;26.02;41.16;99189.94;4185463;34;34234;-75
2022/05/24 12:48:36;;;;;;;4.20;2.75;;;;;;;26.44;39.87;99174.34;4186575;34;35967;-76
2022/05/24 12:51:23;;;;;;;5.18;2.60;;;;;;;26.31;41.36;99166.97;4185493;34;35253;-75
2022/05/24 12:54:12;;;;;;;7.00;2.67;;;;;;;25.66;42.62;99173.62;4185492;34;34482;-75
2022/05/24 12:57:23;;;;;;;4.75;2.72;;;;;;;25.99;42.11;99169.13;4195138;34;35584;-75
2022/05/24 13:00:21;;;;;;;6.82;2.50;;;;;;;26.78;41.27;99169.69;4186267;34;36130;-75
2022/05/24 13:03:08;;;;;;;4.22;2.65;;;;;;;26.47;41.53;99158.66;4184821;34;34318;-75
2022/05/24 13:05:56;;;;;;;3.42;2.50;;;;;;;26.62;41.32;99147.94;4193751;34;35224;-77
2022/05/24 13:08:42;;;;;;;4.65;3.03;;;;;;;26.86;40.54;99155.06;4186527;34;34491;-78
2022/05/24 13:11:29;;;;;;;3.55;2.75;;;;;;;26.40;43.52;99170.00;4192854;34;34673;-80
2022/05/24 13:14:34;;;;;;;5.12;2.53;;;;;;;26.81;39.97;99166.03;4185390;34;35344;-79
2022/05/24 13:17:22;;;;;;;4.45;2.95;;;;;;;26.99;39.73;99160.03;4188237;34;35329;-79
2022/05/24 13:20:18;;;;;;;6.03;3.12;;;;;;;26.44;41.04;99165.91;4196398;34;34819;-80
2022/05/24 13:23:27;;;;;;;5.15;2.83;;;;;;;26.60;40.79;99156.78;4188111;34;35050;-79
2022/05/24 13:26:16;;;;;;;4.80;3.03;;;;;;;26.73;39.27;99158.97;4187304;34;35675;-80
2022/05/24 13:29:20;;;;;;;5.53;2.80;;;;;;;26.56;41.03;99163.72;4193142;34;33862;-78
2022/05/24 13:35:16;;;;;;;3.65;3.28;;;;;;;26.03;43.59;99158.62;4188490;34;35938;-80
2022/05/24 13:38:03;;;;;;;4.03;2.92;;;;;;;26.24;41.78;99146.22;4197456;34;34902;-81
2022/05/24 13:40:52;;;;;;;4.90;3.00;;;;;;;26.61;41.45;99151.97;4188691;34;34357;-80
2022/05/24 13:43:44;;;;;;;3.65;2.70;;;;;;;26.56;41.43;99155.31;4187537;34;35133;-80
2022/05/24 13:46:30;;;;;;;3.65;2.50;;;;;;;26.41;42.13;99141.50;4185148;34;34990;-82
2022/05/24 13:49:37;;;;;;;5.40;2.85;;;;;;;26.28;41.26;99137.72;4197097;34;35406;-82
2022/05/24 13:52:30;;;;;;;6.18;3.47;;;;;;;25.97;41.04;99153.94;4189412;34;34241;-81
2022/05/24 13:55:21;;;;;;;3.55;2.60;;;;;;;25.88;42.09;99151.69;4178457;34;34567;-80
2022/05/24 13:58:27;;;;;;;5.60;2.78;;;;;;;25.75;42.54;99143.03;4188040;34;34918;-81
2022/05/24 14:01:27;;;;;;;4.97;3.00;;;;;;;25.95;42.36;99140.31;4188350;34;35471;-81
2022/05/24 14:04:19;;;;;;;4.68;2.90;;;;;;;26.03;40.28;99141.78;4197195;34;35279;-82
2022/05/24 14:07:05;;;;;;;3.90;2.78;;;;;;;25.60;41.79;99140.88;4187327;34;34304;-81
2022/05/24 14:09:51;;;;;;;5.53;3.00;;;;;;;25.79;42.66;99146.59;4188073;34;35944;-79
2022/05/24 14:12:38;;;;;;;5.18;3.00;;;;;;;25.93;41.08;99142.78;4196073;34;35763;-80
2022/05/24 14:15:25;;;;;;;4.65;2.80;;;;;;;25.96;42.33;99144.72;4188767;34;35011;-80
2022/05/24 14:18:12;;;;;;;4.35;2.90;;;;;;;26.26;41.48;99151.41;4188283;34;35528;-80